createdAt,value
2019-01-13T00:02:26.496Z,74.10
2019-01-13T00:04:55.627Z,74.30
2019-01-13T00:07:24.679Z,74.30
2019-01-13T00:09:53.808Z,73.80
2019-01-13T00:12:22.872Z,74.10
2019-01-13T00:14:53.850Z,74.00
2019-01-13T00:17:23.077Z,74.40
2019-01-13T00:19:52.192Z,74.30
2019-01-13T00:22:21.587Z,74.00
2019-01-13T00:24:50.718Z,74.00
2019-01-13T00:27:20.672Z,74.40
2019-01-13T00:29:49.900Z,74.30
2019-01-13T00:32:24.591Z,74.10
2019-01-13T00:34:53.761Z,74.10
2019-01-13T00:37:22.867Z,74.40
2019-01-13T00:39:49.544Z,74.40
2019-01-13T00:42:18.683Z,74.70
2019-01-13T00:44:48.761Z,74.40
2019-01-13T00:47:17.961Z,74.40
2019-01-13T00:49:47.116Z,74.30
2019-01-13T00:52:18.232Z,74.50
2019-01-13T00:54:47.462Z,74.50
2019-01-13T00:57:17.551Z,74.50
2019-01-13T00:59:46.640Z,74.70
2019-01-13T01:02:15.714Z,74.60
2019-01-13T01:04:44.806Z,74.50
2019-01-13T01:07:14.050Z,74.50
2019-01-13T01:09:43.167Z,74.40
2019-01-13T01:12:12.297Z,74.50
2019-01-13T01:14:41.347Z,74.50
2019-01-13T01:17:10.491Z,74.40
2019-01-13T01:19:39.578Z,74.70
2019-01-13T01:22:08.634Z,74.60
2019-01-13T01:24:37.699Z,74.70
2019-01-13T01:27:06.772Z,74.80
2019-01-13T01:29:35.872Z,74.70
2019-01-13T01:32:05.172Z,74.70
2019-01-13T01:34:34.235Z,74.80
2019-01-13T01:37:03.306Z,74.60
2019-01-13T01:39:32.506Z,74.60
2019-01-13T01:42:01.587Z,74.60
2019-01-13T01:44:30.676Z,75.30
2019-01-13T01:46:59.744Z,74.60
2019-01-13T01:49:28.830Z,74.80
2019-01-13T01:51:57.883Z,74.90
2019-01-13T01:54:26.980Z,74.90
2019-01-13T01:56:56.073Z,74.90
2019-01-13T01:59:25.146Z,74.90
2019-01-13T02:01:54.217Z,75.30
2019-01-13T02:04:23.295Z,74.90
2019-01-13T02:06:52.411Z,75.00
2019-01-13T02:09:21.478Z,75.10
2019-01-13T02:11:50.533Z,75.20
2019-01-13T02:14:19.598Z,75.40
2019-01-13T02:16:48.706Z,75.30
2019-01-13T02:19:17.767Z,75.20
2019-01-13T02:21:46.834Z,75.20
2019-01-13T02:24:15.930Z,75.10
2019-01-13T02:26:45.006Z,75.30
2019-01-13T02:29:14.212Z,75.20
2019-01-13T02:31:43.308Z,75.30
2019-01-13T02:34:12.369Z,75.40
2019-01-13T02:36:41.464Z,75.40
2019-01-13T02:39:10.556Z,75.50
2019-01-13T02:41:39.712Z,75.50
2019-01-13T02:44:08.779Z,75.90
2019-01-13T02:46:37.890Z,75.30
2019-01-13T02:49:06.948Z,75.40
2019-01-13T02:51:36.063Z,75.30
2019-01-13T02:54:05.150Z,75.30
2019-01-13T02:56:34.218Z,75.30
2019-01-13T02:59:03.359Z,75.40
2019-01-13T03:01:32.486Z,75.40
2019-01-13T03:04:01.554Z,75.60
2019-01-13T03:06:30.621Z,75.70
2019-01-13T03:08:59.689Z,75.60
2019-01-13T03:11:28.781Z,75.70
2019-01-13T03:13:58.700Z,75.60
2019-01-13T03:16:27.783Z,75.70
2019-01-13T03:18:56.846Z,75.80
2019-01-13T03:21:25.953Z,75.60
2019-01-13T03:23:56.069Z,75.60
2019-01-13T03:26:25.167Z,75.50
2019-01-13T03:28:54.371Z,75.40
2019-01-13T03:31:23.447Z,75.40
2019-01-13T03:33:52.588Z,75.50
2019-01-13T03:36:21.648Z,75.80
2019-01-13T03:38:52.960Z,75.90
2019-01-13T03:41:23.481Z,75.70
2019-01-13T03:43:53.683Z,75.90
2019-01-13T03:46:22.840Z,75.80
2019-01-13T03:48:52.124Z,75.30
2019-01-13T03:51:22.721Z,75.30
2019-01-13T03:53:51.819Z,75.70
2019-01-13T03:56:20.948Z,75.70
2019-01-13T03:58:50.034Z,75.70
2019-01-13T04:01:21.110Z,75.70
2019-01-13T04:03:50.206Z,75.80
2019-01-13T04:06:22.848Z,75.80
2019-01-13T04:08:51.965Z,75.90
2019-01-13T04:11:24.378Z,75.60
2019-01-13T04:13:53.449Z,75.70
2019-01-13T04:16:22.670Z,75.50
2019-01-13T04:18:51.861Z,75.60
2019-01-13T04:21:23.120Z,75.90
2019-01-13T04:23:52.209Z,76.00
2019-01-13T04:26:22.442Z,76.10
2019-01-13T04:28:52.581Z,76.00
2019-01-13T04:31:26.827Z,75.90
2019-01-13T04:33:54.599Z,75.70
2019-01-13T04:36:23.777Z,75.70
2019-01-13T04:38:54.008Z,75.70
2019-01-13T04:41:28.210Z,75.80
2019-01-13T04:43:57.478Z,75.80
2019-01-13T04:46:27.629Z,75.80
2019-01-13T04:48:56.798Z,75.60
2019-01-13T04:51:26.996Z,75.50
2019-01-13T04:53:57.162Z,75.70
2019-01-13T04:56:27.285Z,75.40
2019-01-13T04:58:57.460Z,75.50
2019-01-13T05:01:34.156Z,75.80
2019-01-13T05:03:57.534Z,75.70
2019-01-13T05:06:26.641Z,75.60
2019-01-13T05:08:56.796Z,75.50
2019-01-13T05:11:27.060Z,75.60
2019-01-13T05:13:57.430Z,75.50
2019-01-13T05:16:27.540Z,75.60
2019-01-13T05:18:57.759Z,75.60
2019-01-13T05:21:27.861Z,75.70
2019-01-13T05:23:56.945Z,75.80
2019-01-13T05:26:27.091Z,75.70
2019-01-13T05:28:56.355Z,75.50
2019-01-13T05:31:25.496Z,75.50
2019-01-13T05:33:54.661Z,75.50
2019-01-13T05:36:34.457Z,75.50
2019-01-13T05:39:04.329Z,75.70
2019-01-13T05:41:37.567Z,75.70
2019-01-13T05:44:07.752Z,76.30
2019-01-13T05:46:39.927Z,75.50
2019-01-13T05:49:09.859Z,75.50
2019-01-13T05:51:40.304Z,74.90
2019-01-13T05:54:11.572Z,75.40
2019-01-13T05:56:41.842Z,75.50
2019-01-13T05:59:11.082Z,75.50
2019-01-13T06:01:41.303Z,75.10
2019-01-13T06:04:10.383Z,75.40
2019-01-13T06:06:39.433Z,75.50
2019-01-13T06:09:08.840Z,75.40
2019-01-13T06:11:37.894Z,75.70
2019-01-13T06:14:07.025Z,75.80
2019-01-13T06:16:36.130Z,75.80
2019-01-13T06:19:05.222Z,75.80
2019-01-13T06:21:34.344Z,75.90
2019-01-13T06:24:03.534Z,75.80
2019-01-13T06:26:33.723Z,75.90
2019-01-13T06:29:02.897Z,75.80
2019-01-13T06:31:33.059Z,75.80
2019-01-13T06:34:03.195Z,76.00
2019-01-13T06:36:33.352Z,75.90
2019-01-13T06:39:02.595Z,75.80
2019-01-13T06:41:32.709Z,75.70
2019-01-13T06:44:01.803Z,75.90
2019-01-13T06:46:31.190Z,76.00
2019-01-13T06:49:00.712Z,76.00
2019-01-13T06:51:32.075Z,76.20
2019-01-13T06:54:02.363Z,76.20
2019-01-13T06:56:31.617Z,76.00
2019-01-13T06:59:00.948Z,75.50
2019-01-13T07:01:30.379Z,75.50
2019-01-13T07:04:00.959Z,75.10
2019-01-13T07:06:30.301Z,75.80
2019-01-13T07:08:59.578Z,75.60
2019-01-13T07:11:31.118Z,75.60
2019-01-13T07:14:00.392Z,76.00
2019-01-13T07:16:29.635Z,75.70
2019-01-13T07:19:00.181Z,75.90
2019-01-13T07:21:29.573Z,76.10
2019-01-13T07:23:59.820Z,76.00
2019-01-13T07:26:30.878Z,76.10
2019-01-13T07:29:01.004Z,75.80
2019-01-13T07:31:32.646Z,76.00
2019-01-13T07:34:02.045Z,76.40
2019-01-13T07:36:38.355Z,75.60
2019-01-13T07:39:08.826Z,76.00
2019-01-13T07:41:42.366Z,75.70
2019-01-13T07:44:12.753Z,75.90
2019-01-13T07:46:44.200Z,75.80
2019-01-13T07:49:13.643Z,75.80
2019-01-13T07:51:42.730Z,75.40
2019-01-13T07:54:12.083Z,75.90
2019-01-13T07:56:43.615Z,75.50
2019-01-13T07:59:27.000Z,75.90
2019-01-13T08:01:59.309Z,75.60
2019-01-13T08:04:29.589Z,75.90
2019-01-13T08:06:59.997Z,75.90
2019-01-13T08:09:31.467Z,76.00
2019-01-13T08:12:03.093Z,75.60
2019-01-13T08:14:37.226Z,76.00
2019-01-13T08:17:12.884Z,76.00
2019-01-13T08:19:43.471Z,75.90
2019-01-13T08:22:20.942Z,76.20
2019-01-13T08:24:53.226Z,76.20
2019-01-13T08:27:32.608Z,76.30
2019-01-13T08:30:01.996Z,76.20
2019-01-13T08:32:31.541Z,75.60
2019-01-13T08:35:00.942Z,75.90
2019-01-13T08:37:31.340Z,75.70
2019-01-13T08:40:01.746Z,76.40
2019-01-13T08:42:34.124Z,76.30
2019-01-13T08:45:05.397Z,76.20
2019-01-13T08:47:34.719Z,76.10
2019-01-13T08:50:07.040Z,76.10
2019-01-13T08:52:44.197Z,76.10
2019-01-13T08:55:13.820Z,75.60
2019-01-13T08:57:43.429Z,75.70
2019-01-13T09:00:21.857Z,75.60
2019-01-13T09:02:51.018Z,76.10
2019-01-13T09:05:20.838Z,75.80
2019-01-13T09:07:50.053Z,75.50
2019-01-13T09:10:20.406Z,75.80
2019-01-13T09:12:56.365Z,75.90
2019-01-13T09:15:22.118Z,75.70
2019-01-13T09:17:51.478Z,75.80
2019-01-13T09:20:26.864Z,76.00
2019-01-13T09:22:56.603Z,75.70
2019-01-13T09:25:25.670Z,75.90
2019-01-13T09:27:54.745Z,75.90
2019-01-13T09:30:25.666Z,75.70
2019-01-13T09:32:54.831Z,75.60
2019-01-13T09:35:25.115Z,75.60
2019-01-13T09:37:54.712Z,75.90
2019-01-13T09:40:31.180Z,75.90
2019-01-13T09:43:02.102Z,75.70
2019-01-13T09:45:31.275Z,75.90
2019-01-13T09:48:00.387Z,76.00
2019-01-13T09:50:29.507Z,75.90
2019-01-13T09:52:58.612Z,76.60
2019-01-13T09:55:27.703Z,76.10
2019-01-13T09:57:56.794Z,76.10
2019-01-13T10:00:37.869Z,76.20
2019-01-13T10:03:08.214Z,76.00
2019-01-13T10:05:39.217Z,76.10
2019-01-13T10:08:08.767Z,75.60
2019-01-13T10:10:38.993Z,75.70
2019-01-13T10:13:09.218Z,75.90
2019-01-13T10:15:38.378Z,75.90
2019-01-13T10:18:07.787Z,75.70
2019-01-13T10:20:36.991Z,75.70
2019-01-13T10:23:06.211Z,75.90
2019-01-13T10:25:36.440Z,75.90
2019-01-13T10:28:06.866Z,75.80
2019-01-13T10:30:36.070Z,75.90
2019-01-13T10:33:06.205Z,75.60
2019-01-13T10:35:35.549Z,75.60
2019-01-13T10:38:04.849Z,75.20
2019-01-13T10:40:34.005Z,75.10
2019-01-13T10:43:03.538Z,75.00
2019-01-13T10:45:32.807Z,75.10
2019-01-13T10:48:02.021Z,75.10
2019-01-13T10:50:32.489Z,75.20
2019-01-13T10:53:03.502Z,75.20
2019-01-13T10:55:32.750Z,75.10
2019-01-13T10:58:01.836Z,75.60
2019-01-13T11:00:32.807Z,75.50
2019-01-13T11:03:02.696Z,75.50
2019-01-13T11:05:31.929Z,75.70
2019-01-13T11:08:02.142Z,75.70
2019-01-13T11:10:31.374Z,75.40
2019-01-13T11:13:00.515Z,75.30
2019-01-13T11:15:30.102Z,75.30
2019-01-13T11:17:59.251Z,75.00
2019-01-13T11:20:32.116Z,75.10
2019-01-13T11:23:02.360Z,75.00
2019-01-13T11:25:31.563Z,75.00
2019-01-13T11:28:00.758Z,74.70
2019-01-13T11:30:30.005Z,74.70
2019-01-13T11:33:00.167Z,75.00
2019-01-13T11:35:29.432Z,75.00
2019-01-13T11:37:58.594Z,75.30
2019-01-13T11:40:29.351Z,74.90
2019-01-13T11:42:58.655Z,74.70
2019-01-13T11:45:27.821Z,74.80
2019-01-13T11:47:57.114Z,75.00
2019-01-13T11:50:27.592Z,75.00
2019-01-13T11:52:57.707Z,75.00
2019-01-13T11:55:33.712Z,75.00
2019-01-13T11:58:02.920Z,74.90
2019-01-13T12:00:35.691Z,74.50
2019-01-13T12:03:06.859Z,75.00
2019-01-13T12:05:36.908Z,75.20
2019-01-13T12:10:38.518Z,75.50
2019-01-13T12:13:08.004Z,75.40
2019-01-13T12:15:37.224Z,75.50
2019-01-13T12:18:06.409Z,75.60
2019-01-13T12:20:36.705Z,75.50
2019-01-13T12:23:06.828Z,75.60
2019-01-13T12:25:35.966Z,75.80
2019-01-13T12:28:05.402Z,75.90
2019-01-13T12:30:35.823Z,75.90
2019-01-13T12:33:05.355Z,75.70
2019-01-13T12:35:34.490Z,75.80
2019-01-13T12:38:03.755Z,75.80
2019-01-13T12:40:33.135Z,75.90
2019-01-13T12:45:39.280Z,76.20
2019-01-13T12:48:08.573Z,75.90
2019-01-13T12:50:38.125Z,76.00
2019-01-13T12:53:12.718Z,76.20
2019-01-13T12:55:47.905Z,76.10
2019-01-13T12:58:20.088Z,75.80
2019-01-13T13:00:49.231Z,75.90
2019-01-13T13:03:19.419Z,76.00
2019-01-13T13:05:49.624Z,76.20
2019-01-13T13:08:19.803Z,76.00
2019-01-13T13:10:52.627Z,75.90
2019-01-13T13:13:24.500Z,76.00
2019-01-13T13:15:54.604Z,76.00
2019-01-13T13:18:24.904Z,76.10
2019-01-13T13:20:54.149Z,76.30
2019-01-13T13:23:23.221Z,76.40
2019-01-13T13:25:53.404Z,76.50
2019-01-13T13:28:22.768Z,76.70
2019-01-13T13:30:52.214Z,76.50
2019-01-13T13:33:22.929Z,76.50
2019-01-13T13:35:54.390Z,76.80
2019-01-13T13:38:23.766Z,77.10
2019-01-13T13:40:52.914Z,76.70
2019-01-13T13:43:31.261Z,77.00
2019-01-13T13:46:00.991Z,77.00
2019-01-13T13:48:31.283Z,77.00
2019-01-13T13:51:00.547Z,77.10
2019-01-13T13:53:29.712Z,77.00
2019-01-13T13:55:59.982Z,77.00
2019-01-13T13:58:29.184Z,77.10
2019-01-13T14:00:58.450Z,77.20
2019-01-13T14:03:27.807Z,77.40
2019-01-13T14:05:56.964Z,77.80
2019-01-13T14:08:27.760Z,77.40
2019-01-13T14:10:57.114Z,77.40
2019-01-13T14:13:28.386Z,77.30
2019-01-13T14:15:57.519Z,77.70
2019-01-13T14:18:26.663Z,77.90
2019-01-13T14:20:56.720Z,78.40
2019-01-13T14:23:25.819Z,77.60
2019-01-13T14:25:55.039Z,77.70
2019-01-13T14:28:24.228Z,77.60
2019-01-13T14:30:54.516Z,77.90
2019-01-13T14:33:23.714Z,77.50
2019-01-13T14:35:52.861Z,77.30
2019-01-13T14:38:21.984Z,77.70
2019-01-13T14:40:51.376Z,77.40
2019-01-13T14:43:23.510Z,77.60
2019-01-13T14:45:57.699Z,77.60
2019-01-13T14:48:30.774Z,77.70
2019-01-13T14:51:02.032Z,78.10
2019-01-13T14:53:31.307Z,77.40
2019-01-13T14:56:00.723Z,77.10
2019-01-13T14:58:34.635Z,77.40
2019-01-13T15:01:03.903Z,77.60
2019-01-13T15:03:33.277Z,77.70
2019-01-13T15:06:02.513Z,77.90
2019-01-13T15:08:32.793Z,78.00
2019-01-13T15:11:02.002Z,78.20
2019-01-13T15:13:32.322Z,78.10
2019-01-13T15:16:10.718Z,78.10
2019-01-13T15:18:40.890Z,78.20
2019-01-13T15:21:12.052Z,77.90
2019-01-13T15:23:41.225Z,78.00
2019-01-13T15:26:11.414Z,78.20
2019-01-13T15:28:42.988Z,78.30
2019-01-13T15:31:13.222Z,78.20
2019-01-13T15:33:42.468Z,78.10
2019-01-13T15:36:12.539Z,78.20
2019-01-13T15:38:41.908Z,78.00
2019-01-13T15:41:11.068Z,78.20
2019-01-13T15:43:40.404Z,78.20
2019-01-13T15:46:09.766Z,78.20
2019-01-13T15:48:38.936Z,78.30
2019-01-13T15:51:08.173Z,78.30
2019-01-13T15:53:37.370Z,78.40
2019-01-13T15:56:07.545Z,78.30
2019-01-13T15:58:37.765Z,78.50
2019-01-13T16:01:08.138Z,78.50
2019-01-13T16:03:38.322Z,78.50
2019-01-13T16:06:07.544Z,78.30
2019-01-13T16:08:37.721Z,78.30
2019-01-13T16:11:07.948Z,78.50
2019-01-13T16:13:38.075Z,78.50
2019-01-13T16:16:07.477Z,78.30
2019-01-13T16:18:36.723Z,78.30
2019-01-13T16:21:05.856Z,78.00
2019-01-13T16:23:35.026Z,78.10
2019-01-13T16:26:04.244Z,78.00
2019-01-13T16:28:33.400Z,78.20
2019-01-13T16:31:03.550Z,78.10
2019-01-13T16:33:32.710Z,78.20
2019-01-13T16:36:01.916Z,77.90
2019-01-13T16:38:31.047Z,77.90
2019-01-13T16:41:00.136Z,78.00
2019-01-13T16:43:29.231Z,77.90
2019-01-13T16:45:58.329Z,77.80
2019-01-13T16:48:27.428Z,77.90
2019-01-13T16:50:56.733Z,78.10
2019-01-13T16:53:25.953Z,77.90
2019-01-13T16:55:55.337Z,77.80
2019-01-13T16:58:24.508Z,78.20
2019-01-13T17:00:53.811Z,78.30
2019-01-13T17:03:22.936Z,78.40
2019-01-13T17:05:52.043Z,78.50
2019-01-13T17:08:21.154Z,78.60
2019-01-13T17:10:50.724Z,78.80
2019-01-13T17:13:20.073Z,78.70
2019-01-13T17:15:49.157Z,78.50
2019-01-13T17:18:18.238Z,78.90
2019-01-13T17:20:47.348Z,78.80
2019-01-13T17:23:16.462Z,78.80
2019-01-13T17:25:45.607Z,79.10
2019-01-13T17:28:14.677Z,79.00
2019-01-13T17:30:43.807Z,79.00
2019-01-13T17:33:12.876Z,79.10
2019-01-13T17:35:41.996Z,79.00
2019-01-13T17:38:11.061Z,79.20
2019-01-13T17:40:40.151Z,79.90
2019-01-13T17:43:09.359Z,79.10
2019-01-13T17:45:38.477Z,79.40
2019-01-13T17:48:08.746Z,79.40
2019-01-13T17:50:37.851Z,79.50
2019-01-13T17:53:08.751Z,79.40
2019-01-13T17:55:38.237Z,79.70
2019-01-13T17:58:07.530Z,79.40
2019-01-13T18:00:48.913Z,79.50
2019-01-13T18:03:21.692Z,79.60
2019-01-13T18:05:50.919Z,79.70
2019-01-13T18:08:19.993Z,79.50
2019-01-13T18:10:49.118Z,79.60
2019-01-13T18:13:18.227Z,79.60
2019-01-13T18:15:47.299Z,79.40
2019-01-13T18:18:16.427Z,79.60
2019-01-13T18:20:45.606Z,79.70
2019-01-13T18:23:14.698Z,79.70
2019-01-13T18:25:44.817Z,79.40
2019-01-13T18:28:15.066Z,79.60
2019-01-13T18:30:45.395Z,79.80
2019-01-13T18:33:14.625Z,79.80
2019-01-13T18:35:43.839Z,79.80
2019-01-13T18:38:14.067Z,79.50
2019-01-13T18:40:44.193Z,79.60
2019-01-13T18:43:13.415Z,79.60
2019-01-13T18:45:43.919Z,79.50
2019-01-13T18:48:13.047Z,79.60
2019-01-13T18:50:42.207Z,79.70
2019-01-13T18:53:13.206Z,79.70
2019-01-13T18:55:42.332Z,79.80
2019-01-13T18:58:12.662Z,79.80
2019-01-13T19:00:41.789Z,79.90
2019-01-13T19:03:11.886Z,79.90
2019-01-13T19:05:42.183Z,80.00
2019-01-13T19:08:11.327Z,79.90
2019-01-13T19:11:11.508Z,79.80
2019-01-13T19:14:21.591Z,79.80
2019-01-13T19:17:12.066Z,79.70
2019-01-13T19:20:10.937Z,79.60
2019-01-13T19:22:41.575Z,79.70
2019-01-13T19:25:23.267Z,79.80
2019-01-13T19:27:53.456Z,79.90
2019-01-13T19:30:22.840Z,79.90
2019-01-13T19:32:52.074Z,79.60
2019-01-13T19:35:21.240Z,79.50
2019-01-13T19:37:50.331Z,79.60
2019-01-13T19:40:19.431Z,79.50
2019-01-13T19:42:48.574Z,79.40
2019-01-13T19:45:19.012Z,79.40
2019-01-13T19:47:48.214Z,80.00
2019-01-13T19:50:22.406Z,79.10
2019-01-13T19:52:52.880Z,78.80
2019-01-13T19:55:22.051Z,78.70
2019-01-13T20:01:31.384Z,77.90
2019-01-13T20:04:53.583Z,77.70
2019-01-13T20:11:03.010Z,77.80
2019-01-13T20:14:25.198Z,77.90
2019-01-13T20:20:34.420Z,77.60
2019-01-13T20:26:43.762Z,77.40
2019-01-13T20:29:13.862Z,77.50
2019-01-13T20:31:42.977Z,77.40
2019-01-13T20:34:12.079Z,77.30
2019-01-13T20:36:41.151Z,77.40
2019-01-13T20:39:11.121Z,77.40
2019-01-13T20:41:40.311Z,77.30
2019-01-13T20:44:10.537Z,77.40
2019-01-13T20:46:40.691Z,77.30
2019-01-13T20:49:09.886Z,77.60
2019-01-13T20:51:38.957Z,77.40
2019-01-13T20:54:08.215Z,77.40
2019-01-13T20:56:37.341Z,77.30
2019-01-13T20:59:07.436Z,77.10
2019-01-13T21:01:36.641Z,76.90
2019-01-13T21:04:05.728Z,76.90
2019-01-13T21:06:34.927Z,77.10
2019-01-13T21:09:08.064Z,76.80
2019-01-13T21:11:37.153Z,76.70
2019-01-13T21:14:06.271Z,76.70
2019-01-13T21:16:35.402Z,76.40
2019-01-13T21:19:05.522Z,76.40
2019-01-13T21:21:34.630Z,76.30
2019-01-13T21:24:03.789Z,76.10
2019-01-13T21:26:34.221Z,76.00
2019-01-13T21:29:03.372Z,76.20
2019-01-13T21:31:32.552Z,75.80
2019-01-13T21:34:01.624Z,75.90
2019-01-13T21:36:30.748Z,75.70
2019-01-13T21:38:59.812Z,75.70
2019-01-13T21:41:28.884Z,76.10
2019-01-13T21:43:57.959Z,76.30
2019-01-13T21:46:28.234Z,76.30
2019-01-13T21:48:57.311Z,76.00
2019-01-13T21:51:26.383Z,76.10
2019-01-13T21:53:55.518Z,76.00
2019-01-13T21:56:24.644Z,76.10
2019-01-13T21:58:53.786Z,74.50
2019-01-13T22:01:22.995Z,73.70
2019-01-13T22:03:53.102Z,73.00
2019-01-13T22:06:23.309Z,71.80
2019-01-13T22:08:56.067Z,72.40
2019-01-13T22:11:23.274Z,72.00
2019-01-13T22:13:53.399Z,72.50
2019-01-13T22:16:22.583Z,72.30
2019-01-13T22:18:52.699Z,72.60
2019-01-13T22:21:21.821Z,72.50
2019-01-13T22:23:50.986Z,72.70
2019-01-13T22:26:20.084Z,72.30
2019-01-13T22:28:49.182Z,72.60
2019-01-13T22:31:22.495Z,72.80
2019-01-13T22:33:50.245Z,72.70
2019-01-13T22:36:19.341Z,72.50
2019-01-13T22:38:48.413Z,72.60
2019-01-13T22:41:18.544Z,72.90
2019-01-13T22:43:48.683Z,73.20
2019-01-13T22:46:17.747Z,73.00
2019-01-13T22:48:47.907Z,73.00
2019-01-13T22:51:18.014Z,73.20
2019-01-13T22:53:48.234Z,73.20
2019-01-13T22:56:17.477Z,73.20
2019-01-13T22:58:46.622Z,73.10
2019-01-13T23:01:43.913Z,73.40
2019-01-13T23:04:18.183Z,73.40
2019-01-13T23:06:48.323Z,73.50
2019-01-13T23:09:18.574Z,73.40
2019-01-13T23:11:47.751Z,73.30
2019-01-13T23:14:17.884Z,73.20
2019-01-13T23:16:46.988Z,73.30
2019-01-13T23:19:16.073Z,73.10
2019-01-13T23:21:45.325Z,73.30
2019-01-13T23:24:14.533Z,73.40
2019-01-13T23:26:44.584Z,73.30
2019-01-13T23:29:14.808Z,73.20
2019-01-13T23:31:43.871Z,73.20
2019-01-13T23:34:13.016Z,73.40
2019-01-13T23:36:44.181Z,73.00
2019-01-13T23:39:13.280Z,73.00
2019-01-13T23:41:42.372Z,73.10
2019-01-13T23:44:11.441Z,73.10
2019-01-13T23:46:41.526Z,73.00
2019-01-13T23:49:11.131Z,72.90
2019-01-13T23:51:40.192Z,72.50
2019-01-13T23:54:09.302Z,72.50
2019-01-13T23:56:38.371Z,72.50
2019-01-13T23:59:07.501Z,72.70
